West Woodward Airport
KWWR : now visible

Airfield :











YOU CAN JOIN US ON...

 
LOGIN :

Register | Disclaimer

   EN    FR    IT 

 









Legend :    VFR   Marginal VFR   IFR   Intensive IFR   Very Intensive IFR
Visi :
Ceiling :
>= 8 km
>= 3000ft
5 to 8 km
1000 to 3000 ft
1500m to 5 km
500 to 1000 ft
800 to 1500m
200 to 500 ft
< 800m
< 200 ft
Symbols :   Thunderstorms  Fog  Heavy snow  Heavy precipitations  Wind > 20 kt







- Airport Elevation : 2189 ft


KWWR - West Woodward

CURRENT METAR :
  • 181155Z AUTO 19011KT 10SM BKN120 22/17 A2999 RMK AO2

EXPIRED METARs :
  • 181135Z AUTO 19011G17KT 10SM SCT110 22/17 A2998 RMK AO2
  • 181115Z AUTO 19010G20KT 10SM SCT110 22/17 A2998 RMK AO2
  • 181055Z AUTO 18013G19KT 10SM SCT120 23/17 A2997 RMK AO2
  • 181035Z AUTO 19013G20KT 10SM CLR 23/17 A2997 RMK AO2
  • 181015Z AUTO 18014G18KT 10SM CLR 23/17 A2997 RMK AO2
  • 180955Z AUTO 18013G18KT 10SM CLR 22/17 A2997 RMK AO2
  • 180935Z AUTO 18011G18KT 10SM CLR 23/17 A2997 RMK AO2
  • 180915Z AUTO 18014KT 10SM CLR 23/17 A2997 RMK AO2

TAF KWWR
Valid from the 18 at 12:00 until the 19 at 12:00 UTC


181120Z 1812/1912 17013G18KT P6SM SCT070
No reported NOTAMs for that airfield.



MET'MAP, your aeronautical weather chart ! - Copyright ORBIFLY December 2007 - Disclaimer

ORBIFLY MET'MAP TEAM :

Programming & Development : Alexandra Zaïnal
Concept & Development : Baudouin d'Aumeries
Co-Development & Prog : Marc-Olivier Méhu
Technical & hardware support : Manuel Goepfert

Contact : metmap@orbifly.com




SOURCES & CREDITS :

   NOAA       Earth
Advisory